sensor_id;sensor_type;location;lat;lon;timestamp;temperature;humidity
8248;DHT22;4164;49.844;8.830;2024-03-17T00:02:25;8.20;99.90
8248;DHT22;4164;49.844;8.830;2024-03-17T00:04:50;8.10;99.90
8248;DHT22;4164;49.844;8.830;2024-03-17T00:07:16;8.10;99.90
8248;DHT22;4164;49.844;8.830;2024-03-17T00:09:42;8.00;99.90
8248;DHT22;4164;49.844;8.830;2024-03-17T00:12:08;8.00;99.90
8248;DHT22;4164;49.844;8.830;2024-03-17T00:14:34;8.00;99.90
8248;DHT22;4164;49.844;8.830;2024-03-17T00:17:01;8.00;99.90
8248;DHT22;4164;49.844;8.830;2024-03-17T00:19:26;8.10;99.90
8248;DHT22;4164;49.844;8.830;2024-03-17T00:21:52;8.20;99.90
8248;DHT22;4164;49.844;8.830;2024-03-17T00:24:18;8.20;99.90
8248;DHT22;4164;49.844;8.830;2024-03-17T00:26:43;8.00;99.90
8248;DHT22;4164;49.844;8.830;2024-03-17T00:29:10;8.00;99.90
8248;DHT22;4164;49.844;8.830;2024-03-17T00:31:35;8.00;99.90
8248;DHT22;4164;49.844;8.830;2024-03-17T00:34:02;7.60;99.90
8248;DHT22;4164;49.844;8.830;2024-03-17T00:36:28;7.50;99.90
8248;DHT22;4164;49.844;8.830;2024-03-17T00:38:54;7.40;99.90
8248;DHT22;4164;49.844;8.830;2024-03-17T00:41:19;7.10;99.90
8248;DHT22;4164;49.844;8.830;2024-03-17T00:43:46;7.10;99.90
8248;DHT22;4164;49.844;8.830;2024-03-17T00:46:16;7.30;99.90
8248;DHT22;4164;49.844;8.830;2024-03-17T00:48:43;7.20;99.90
8248;DHT22;4164;49.844;8.830;2024-03-17T00:51:09;7.20;99.90
8248;DHT22;4164;49.844;8.830;2024-03-17T00:53:34;7.00;99.90
8248;DHT22;4164;49.844;8.830;2024-03-17T00:56:00;7.10;99.90
8248;DHT22;4164;49.844;8.830;2024-03-17T00:58:27;7.20;99.90
8248;DHT22;4164;49.844;8.830;2024-03-17T01:00:52;7.20;99.90
8248;DHT22;4164;49.844;8.830;2024-03-17T01:03:18;6.90;99.90
8248;DHT22;4164;49.844;8.830;2024-03-17T01:05:44;6.90;99.90
8248;DHT22;4164;49.844;8.830;2024-03-17T01:08:15;6.80;99.90
8248;DHT22;4164;49.844;8.830;2024-03-17T01:10:41;6.90;99.90
8248;DHT22;4164;49.844;8.830;2024-03-17T01:13:07;7.00;99.90
8248;DHT22;4164;49.844;8.830;2024-03-17T01:15:37;7.00;99.90
8248;DHT22;4164;49.844;8.830;2024-03-17T01:18:04;6.90;99.90
8248;DHT22;4164;49.844;8.830;2024-03-17T01:20:31;6.90;99.90
8248;DHT22;4164;49.844;8.830;2024-03-17T01:22:56;7.00;99.90
8248;DHT22;4164;49.844;8.830;2024-03-17T01:25:22;6.90;99.90
8248;DHT22;4164;49.844;8.830;2024-03-17T01:27:48;6.70;99.90
8248;DHT22;4164;49.844;8.830;2024-03-17T01:30:13;6.70;99.90
8248;DHT22;4164;49.844;8.830;2024-03-17T01:32:39;6.80;99.90
8248;DHT22;4164;49.844;8.830;2024-03-17T01:35:05;6.60;99.90
8248;DHT22;4164;49.844;8.830;2024-03-17T01:37:33;6.30;99.90
8248;DHT22;4164;49.844;8.830;2024-03-17T01:40:02;6.30;99.90
8248;DHT22;4164;49.844;8.830;2024-03-17T01:42:30;6.50;99.90
8248;DHT22;4164;49.844;8.830;2024-03-17T01:44:55;6.60;99.90
8248;DHT22;4164;49.844;8.830;2024-03-17T01:47:21;6.50;99.90
8248;DHT22;4164;49.844;8.830;2024-03-17T01:49:47;6.50;99.90
8248;DHT22;4164;49.844;8.830;2024-03-17T01:52:15;6.50;99.90
8248;DHT22;4164;49.844;8.830;2024-03-17T01:54:41;6.40;1.00
8248;DHT22;4164;49.844;8.830;2024-03-17T01:57:08;6.40;1.00
8248;DHT22;4164;49.844;8.830;2024-03-17T01:59:33;6.30;1.00
8248;DHT22;4164;49.844;8.830;2024-03-17T02:01:59;6.40;1.00
8248;DHT22;4164;49.844;8.830;2024-03-17T02:04:25;6.40;1.00
8248;DHT22;4164;49.844;8.830;2024-03-17T02:06:50;6.40;1.00
8248;DHT22;4164;49.844;8.830;2024-03-17T02:09:19;6.20;1.00
8248;DHT22;4164;49.844;8.830;2024-03-17T02:11:45;7.30;1.00
8248;DHT22;4164;49.844;8.830;2024-03-17T02:14:11;6.40;1.00
8248;DHT22;4164;49.844;8.830;2024-03-17T02:16:39;6.30;1.00
8248;DHT22;4164;49.844;8.830;2024-03-17T02:19:04;6.20;99.90
8248;DHT22;4164;49.844;8.830;2024-03-17T02:21:30;6.10;99.90
8248;DHT22;4164;49.844;8.830;2024-03-17T02:23:55;6.20;99.90
8248;DHT22;4164;49.844;8.830;2024-03-17T02:26:22;6.20;99.90
8248;DHT22;4164;49.844;8.830;2024-03-17T02:28:48;6.20;99.90
8248;DHT22;4164;49.844;8.830;2024-03-17T02:31:15;6.00;99.90
8248;DHT22;4164;49.844;8.830;2024-03-17T02:33:42;5.80;99.90
8248;DHT22;4164;49.844;8.830;2024-03-17T02:36:07;5.80;99.90
8248;DHT22;4164;49.844;8.830;2024-03-17T02:38:34;5.80;99.90
8248;DHT22;4164;49.844;8.830;2024-03-17T02:41:19;5.80;1.00
8248;DHT22;4164;49.844;8.830;2024-03-17T02:43:45;5.60;1.00
8248;DHT22;4164;49.844;8.830;2024-03-17T02:46:15;5.60;1.00
8248;DHT22;4164;49.844;8.830;2024-03-17T02:48:41;5.60;99.90
8248;DHT22;4164;49.844;8.830;2024-03-17T02:51:16;5.60;99.90
8248;DHT22;4164;49.844;8.830;2024-03-17T02:53:43;5.60;99.90
8248;DHT22;4164;49.844;8.830;2024-03-17T02:56:10;5.50;99.90
8248;DHT22;4164;49.844;8.830;2024-03-17T02:58:37;5.50;99.90
8248;DHT22;4164;49.844;8.830;2024-03-17T03:01:03;5.30;99.90
8248;DHT22;4164;49.844;8.830;2024-03-17T03:03:36;5.40;99.90
8248;DHT22;4164;49.844;8.830;2024-03-17T03:06:02;5.30;1.00
8248;DHT22;4164;49.844;8.830;2024-03-17T03:08:30;5.20;1.00
8248;DHT22;4164;49.844;8.830;2024-03-17T03:10:56;5.20;1.00
8248;DHT22;4164;49.844;8.830;2024-03-17T03:13:21;5.10;1.00
8248;DHT22;4164;49.844;8.830;2024-03-17T03:15:48;5.10;1.00
8248;DHT22;4164;49.844;8.830;2024-03-17T03:18:14;5.00;99.90
8248;DHT22;4164;49.844;8.830;2024-03-17T03:20:40;4.90;99.90
8248;DHT22;4164;49.844;8.830;2024-03-17T03:23:05;4.80;1.00
8248;DHT22;4164;49.844;8.830;2024-03-17T03:25:31;4.80;1.00
8248;DHT22;4164;49.844;8.830;2024-03-17T03:27:57;4.80;1.00
8248;DHT22;4164;49.844;8.830;2024-03-17T03:30:23;4.80;99.90
8248;DHT22;4164;49.844;8.830;2024-03-17T03:32:49;4.70;99.90
8248;DHT22;4164;49.844;8.830;2024-03-17T03:35:20;4.60;1.00
8248;DHT22;4164;49.844;8.830;2024-03-17T03:37:46;4.50;1.00
8248;DHT22;4164;49.844;8.830;2024-03-17T03:40:12;4.50;1.00
8248;DHT22;4164;49.844;8.830;2024-03-17T03:42:42;4.40;1.00
8248;DHT22;4164;49.844;8.830;2024-03-17T03:45:08;4.40;1.00
8248;DHT22;4164;49.844;8.830;2024-03-17T03:47:34;4.40;1.00
8248;DHT22;4164;49.844;8.830;2024-03-17T03:49:59;4.40;1.00
8248;DHT22;4164;49.844;8.830;2024-03-17T03:52:25;4.40;1.00
8248;DHT22;4164;49.844;8.830;2024-03-17T03:54:53;4.50;1.00
8248;DHT22;4164;49.844;8.830;2024-03-17T03:57:19;4.60;1.00
8248;DHT22;4164;49.844;8.830;2024-03-17T03:59:44;4.80;1.00
8248;DHT22;4164;49.844;8.830;2024-03-17T04:02:10;4.80;99.90
8248;DHT22;4164;49.844;8.830;2024-03-17T04:04:35;4.80;99.90
8248;DHT22;4164;49.844;8.830;2024-03-17T04:07:01;4.80;99.90
8248;DHT22;4164;49.844;8.830;2024-03-17T04:09:26;4.80;99.90
8248;DHT22;4164;49.844;8.830;2024-03-17T04:11:52;5.00;1.00
8248;DHT22;4164;49.844;8.830;2024-03-17T04:14:18;5.00;1.00
8248;DHT22;4164;49.844;8.830;2024-03-17T04:16:46;4.90;1.00
8248;DHT22;4164;49.844;8.830;2024-03-17T04:19:12;4.80;1.00
8248;DHT22;4164;49.844;8.830;2024-03-17T04:21:39;4.80;1.00
8248;DHT22;4164;49.844;8.830;2024-03-17T04:24:05;4.90;1.00
8248;DHT22;4164;49.844;8.830;2024-03-17T04:26:30;5.00;1.00
8248;DHT22;4164;49.844;8.830;2024-03-17T04:28:56;5.10;99.90
8248;DHT22;4164;49.844;8.830;2024-03-17T04:31:24;5.10;99.90
8248;DHT22;4164;49.844;8.830;2024-03-17T04:33:50;5.10;99.90
8248;DHT22;4164;49.844;8.830;2024-03-17T04:36:16;5.10;99.90
8248;DHT22;4164;49.844;8.830;2024-03-17T04:38:45;5.10;99.90
8248;DHT22;4164;49.844;8.830;2024-03-17T04:41:15;5.10;99.90
8248;DHT22;4164;49.844;8.830;2024-03-17T04:43:42;5.00;99.90
8248;DHT22;4164;49.844;8.830;2024-03-17T04:46:07;5.00;99.90
8248;DHT22;4164;49.844;8.830;2024-03-17T04:48:37;5.00;99.90
8248;DHT22;4164;49.844;8.830;2024-03-17T04:51:03;4.80;99.90
8248;DHT22;4164;49.844;8.830;2024-03-17T04:53:29;4.70;99.90
8248;DHT22;4164;49.844;8.830;2024-03-17T04:56:02;4.70;1.00
8248;DHT22;4164;49.844;8.830;2024-03-17T04:58:30;4.60;1.00
8248;DHT22;4164;49.844;8.830;2024-03-17T05:00:55;4.50;99.90
8248;DHT22;4164;49.844;8.830;2024-03-17T05:03:24;4.40;1.00
8248;DHT22;4164;49.844;8.830;2024-03-17T05:05:58;4.60;1.00
8248;DHT22;4164;49.844;8.830;2024-03-17T05:08:26;4.60;1.00
8248;DHT22;4164;49.844;8.830;2024-03-17T05:11:05;4.60;1.00
8248;DHT22;4164;49.844;8.830;2024-03-17T05:13:32;4.60;99.90
8248;DHT22;4164;49.844;8.830;2024-03-17T05:15:58;4.60;99.90
8248;DHT22;4164;49.844;8.830;2024-03-17T05:18:24;4.60;99.90
8248;DHT22;4164;49.844;8.830;2024-03-17T05:21:01;4.60;99.90
8248;DHT22;4164;49.844;8.830;2024-03-17T05:23:28;4.60;99.90
8248;DHT22;4164;49.844;8.830;2024-03-17T05:25:55;4.50;99.90
8248;DHT22;4164;49.844;8.830;2024-03-17T05:28:21;4.50;99.90
8248;DHT22;4164;49.844;8.830;2024-03-17T05:30:50;4.50;1.00
8248;DHT22;4164;49.844;8.830;2024-03-17T05:33:16;4.40;1.00
8248;DHT22;4164;49.844;8.830;2024-03-17T05:35:55;4.30;1.00
8248;DHT22;4164;49.844;8.830;2024-03-17T05:38:21;4.40;99.90
8248;DHT22;4164;49.844;8.830;2024-03-17T05:40:58;4.30;99.90
8248;DHT22;4164;49.844;8.830;2024-03-17T05:43:30;4.30;99.90
8248;DHT22;4164;49.844;8.830;2024-03-17T05:45:59;4.30;1.00
8248;DHT22;4164;49.844;8.830;2024-03-17T05:48:25;4.30;1.00
8248;DHT22;4164;49.844;8.830;2024-03-17T05:50:51;4.50;1.00
8248;DHT22;4164;49.844;8.830;2024-03-17T05:53:17;4.50;1.00
8248;DHT22;4164;49.844;8.830;2024-03-17T05:55:44;4.40;1.00
8248;DHT22;4164;49.844;8.830;2024-03-17T05:58:13;4.40;1.00
8248;DHT22;4164;49.844;8.830;2024-03-17T06:00:39;4.40;1.00
8248;DHT22;4164;49.844;8.830;2024-03-17T06:03:05;4.40;1.00
8248;DHT22;4164;49.844;8.830;2024-03-17T06:05:32;4.40;1.00
8248;DHT22;4164;49.844;8.830;2024-03-17T06:07:58;4.50;1.00
8248;DHT22;4164;49.844;8.830;2024-03-17T06:10:24;4.50;1.00
8248;DHT22;4164;49.844;8.830;2024-03-17T06:12:50;4.80;1.00
8248;DHT22;4164;49.844;8.830;2024-03-17T06:15:16;4.80;1.00
8248;DHT22;4164;49.844;8.830;2024-03-17T06:17:42;4.90;1.00
8248;DHT22;4164;49.844;8.830;2024-03-17T06:20:08;5.00;1.00
8248;DHT22;4164;49.844;8.830;2024-03-17T06:22:39;5.20;1.00
8248;DHT22;4164;49.844;8.830;2024-03-17T06:25:05;5.30;1.00
8248;DHT22;4164;49.844;8.830;2024-03-17T06:27:32;5.20;1.00
8248;DHT22;4164;49.844;8.830;2024-03-17T06:30:00;5.20;1.00
8248;DHT22;4164;49.844;8.830;2024-03-17T06:32:29;5.20;1.00
8248;DHT22;4164;49.844;8.830;2024-03-17T06:34:58;5.20;1.00
8248;DHT22;4164;49.844;8.830;2024-03-17T06:37:24;5.30;1.00
8248;DHT22;4164;49.844;8.830;2024-03-17T06:39:50;5.30;1.00
8248;DHT22;4164;49.844;8.830;2024-03-17T06:42:19;5.30;1.00
8248;DHT22;4164;49.844;8.830;2024-03-17T06:44:44;5.40;1.00
8248;DHT22;4164;49.844;8.830;2024-03-17T06:47:10;5.40;1.00
8248;DHT22;4164;49.844;8.830;2024-03-17T06:49:36;5.50;1.00
8248;DHT22;4164;49.844;8.830;2024-03-17T06:52:01;5.80;1.00
8248;DHT22;4164;49.844;8.830;2024-03-17T06:54:27;5.90;1.00
8248;DHT22;4164;49.844;8.830;2024-03-17T06:56:53;6.00;1.00
8248;DHT22;4164;49.844;8.830;2024-03-17T06:59:18;6.20;1.00
8248;DHT22;4164;49.844;8.830;2024-03-17T07:01:44;6.40;1.00
8248;DHT22;4164;49.844;8.830;2024-03-17T07:04:13;6.40;99.90
8248;DHT22;4164;49.844;8.830;2024-03-17T07:06:38;6.20;99.90
8248;DHT22;4164;49.844;8.830;2024-03-17T07:09:04;6.10;99.90
8248;DHT22;4164;49.844;8.830;2024-03-17T07:11:29;6.10;99.90
8248;DHT22;4164;49.844;8.830;2024-03-17T07:13:55;6.10;99.90
8248;DHT22;4164;49.844;8.830;2024-03-17T07:16:20;6.10;1.00
8248;DHT22;4164;49.844;8.830;2024-03-17T07:18:47;6.20;1.00
8248;DHT22;4164;49.844;8.830;2024-03-17T07:21:13;6.20;99.90
8248;DHT22;4164;49.844;8.830;2024-03-17T07:23:38;6.30;99.90
8248;DHT22;4164;49.844;8.830;2024-03-17T07:26:04;6.50;99.90
8248;DHT22;4164;49.844;8.830;2024-03-17T07:28:30;6.60;99.90
8248;DHT22;4164;49.844;8.830;2024-03-17T07:30:58;6.50;99.90
8248;DHT22;4164;49.844;8.830;2024-03-17T07:33:24;6.60;99.90
8248;DHT22;4164;49.844;8.830;2024-03-17T07:35:51;7.00;99.90
8248;DHT22;4164;49.844;8.830;2024-03-17T07:38:18;7.60;99.90
8248;DHT22;4164;49.844;8.830;2024-03-17T07:40:59;7.90;99.90
8248;DHT22;4164;49.844;8.830;2024-03-17T07:43:25;7.80;99.90
8248;DHT22;4164;49.844;8.830;2024-03-17T07:46:20;7.90;99.90
8248;DHT22;4164;49.844;8.830;2024-03-17T07:48:46;7.80;99.90
8248;DHT22;4164;49.844;8.830;2024-03-17T07:51:14;7.50;99.90
8248;DHT22;4164;49.844;8.830;2024-03-17T07:53:41;7.80;99.90
8248;DHT22;4164;49.844;8.830;2024-03-17T07:56:14;7.80;99.90
8248;DHT22;4164;49.844;8.830;2024-03-17T07:58:43;8.20;99.90
8248;DHT22;4164;49.844;8.830;2024-03-17T08:01:11;8.60;99.90
8248;DHT22;4164;49.844;8.830;2024-03-17T08:03:47;9.00;99.90
8248;DHT22;4164;49.844;8.830;2024-03-17T08:06:19;9.30;99.90
8248;DHT22;4164;49.844;8.830;2024-03-17T08:08:44;9.50;99.90
8248;DHT22;4164;49.844;8.830;2024-03-17T08:11:10;9.80;99.90
8248;DHT22;4164;49.844;8.830;2024-03-17T08:13:35;9.80;99.90
8248;DHT22;4164;49.844;8.830;2024-03-17T08:16:04;9.90;99.90
8248;DHT22;4164;49.844;8.830;2024-03-17T08:18:33;10.00;99.90
8248;DHT22;4164;49.844;8.830;2024-03-17T08:21:03;10.10;99.90
8248;DHT22;4164;49.844;8.830;2024-03-17T08:23:34;10.40;99.90
8248;DHT22;4164;49.844;8.830;2024-03-17T08:26:11;10.60;99.90
8248;DHT22;4164;49.844;8.830;2024-03-17T08:28:37;10.70;99.90
8248;DHT22;4164;49.844;8.830;2024-03-17T08:31:03;11.00;99.90
8248;DHT22;4164;49.844;8.830;2024-03-17T08:33:30;11.00;99.90
8248;DHT22;4164;49.844;8.830;2024-03-17T08:36:04;11.10;99.90
8248;DHT22;4164;49.844;8.830;2024-03-17T08:38:31;11.40;99.90
8248;DHT22;4164;49.844;8.830;2024-03-17T08:41:01;11.60;99.90
8248;DHT22;4164;49.844;8.830;2024-03-17T08:43:27;11.40;99.90
8248;DHT22;4164;49.844;8.830;2024-03-17T08:46:03;11.70;99.90
8248;DHT22;4164;49.844;8.830;2024-03-17T08:48:29;11.90;99.90
8248;DHT22;4164;49.844;8.830;2024-03-17T08:50:56;12.20;99.90
8248;DHT22;4164;49.844;8.830;2024-03-17T08:53:22;12.30;99.90
8248;DHT22;4164;49.844;8.830;2024-03-17T08:55:49;12.50;99.90
8248;DHT22;4164;49.844;8.830;2024-03-17T08:58:14;12.70;99.90
8248;DHT22;4164;49.844;8.830;2024-03-17T09:00:40;12.90;99.90
8248;DHT22;4164;49.844;8.830;2024-03-17T09:03:09;13.10;99.90
8248;DHT22;4164;49.844;8.830;2024-03-17T09:05:39;13.40;99.90
8248;DHT22;4164;49.844;8.830;2024-03-17T09:08:06;13.70;99.90
8248;DHT22;4164;49.844;8.830;2024-03-17T09:10:39;14.00;99.90
8248;DHT22;4164;49.844;8.830;2024-03-17T09:13:04;13.80;99.90
8248;DHT22;4164;49.844;8.830;2024-03-17T09:15:30;13.90;99.90
8248;DHT22;4164;49.844;8.830;2024-03-17T09:17:55;13.90;99.90
8248;DHT22;4164;49.844;8.830;2024-03-17T09:20:21;13.90;99.90
8248;DHT22;4164;49.844;8.830;2024-03-17T09:22:46;13.50;99.90
8248;DHT22;4164;49.844;8.830;2024-03-17T09:25:12;13.40;99.90
8248;DHT22;4164;49.844;8.830;2024-03-17T09:27:40;13.50;99.90
8248;DHT22;4164;49.844;8.830;2024-03-17T09:30:06;13.80;99.90
8248;DHT22;4164;49.844;8.830;2024-03-17T09:32:37;14.00;99.90
8248;DHT22;4164;49.844;8.830;2024-03-17T09:35:03;14.20;99.90
8248;DHT22;4164;49.844;8.830;2024-03-17T09:37:30;14.20;99.90
8248;DHT22;4164;49.844;8.830;2024-03-17T09:39:59;14.00;99.90
8248;DHT22;4164;49.844;8.830;2024-03-17T09:42:26;14.10;99.90
8248;DHT22;4164;49.844;8.830;2024-03-17T09:44:53;14.30;99.90
8248;DHT22;4164;49.844;8.830;2024-03-17T09:47:24;14.60;99.90
8248;DHT22;4164;49.844;8.830;2024-03-17T09:49:51;14.50;99.90
8248;DHT22;4164;49.844;8.830;2024-03-17T09:52:22;14.90;99.90
8248;DHT22;4164;49.844;8.830;2024-03-17T09:55:09;14.70;99.90
8248;DHT22;4164;49.844;8.830;2024-03-17T09:57:36;15.10;99.90
8248;DHT22;4164;49.844;8.830;2024-03-17T10:00:06;15.40;99.90
8248;DHT22;4164;49.844;8.830;2024-03-17T10:02:42;15.50;99.90
8248;DHT22;4164;49.844;8.830;2024-03-17T10:05:21;15.50;99.90
8248;DHT22;4164;49.844;8.830;2024-03-17T10:07:48;15.00;99.90
8248;DHT22;4164;49.844;8.830;2024-03-17T10:10:18;15.30;99.90
8248;DHT22;4164;49.844;8.830;2024-03-17T10:12:52;15.50;99.90
8248;DHT22;4164;49.844;8.830;2024-03-17T10:15:18;15.20;99.90
8248;DHT22;4164;49.844;8.830;2024-03-17T10:17:44;15.60;99.90
8248;DHT22;4164;49.844;8.830;2024-03-17T10:20:17;15.90;99.90
8248;DHT22;4164;49.844;8.830;2024-03-17T10:23:06;16.00;99.90
8248;DHT22;4164;49.844;8.830;2024-03-17T10:25:34;16.70;99.90
8248;DHT22;4164;49.844;8.830;2024-03-17T10:28:01;17.40;99.90
8248;DHT22;4164;49.844;8.830;2024-03-17T10:30:28;18.20;99.90
8248;DHT22;4164;49.844;8.830;2024-03-17T10:32:56;17.70;99.90
8248;DHT22;4164;49.844;8.830;2024-03-17T10:35:35;17.60;99.90
8248;DHT22;4164;49.844;8.830;2024-03-17T10:38:04;17.10;99.90
8248;DHT22;4164;49.844;8.830;2024-03-17T10:40:32;17.20;99.90
8248;DHT22;4164;49.844;8.830;2024-03-17T10:43:04;17.60;99.90
8248;DHT22;4164;49.844;8.830;2024-03-17T10:45:32;18.60;99.90
8248;DHT22;4164;49.844;8.830;2024-03-17T10:48:08;19.20;99.90
8248;DHT22;4164;49.844;8.830;2024-03-17T10:50:36;19.10;99.90
8248;DHT22;4164;49.844;8.830;2024-03-17T10:53:07;19.50;99.90
8248;DHT22;4164;49.844;8.830;2024-03-17T10:56:00;18.40;99.90
8248;DHT22;4164;49.844;8.830;2024-03-17T10:58:36;18.00;99.90
8248;DHT22;4164;49.844;8.830;2024-03-17T11:01:04;18.60;99.90
8248;DHT22;4164;49.844;8.830;2024-03-17T11:03:36;19.70;99.90
8248;DHT22;4164;49.844;8.830;2024-03-17T11:06:03;19.50;99.90
8248;DHT22;4164;49.844;8.830;2024-03-17T11:08:31;15.90;99.90
8248;DHT22;4164;49.844;8.830;2024-03-17T11:10:58;15.20;99.90
8248;DHT22;4164;49.844;8.830;2024-03-17T11:13:29;14.60;99.90
8248;DHT22;4164;49.844;8.830;2024-03-17T11:15:58;14.70;99.90
8248;DHT22;4164;49.844;8.830;2024-03-17T11:21:07;15.40;99.90
8248;DHT22;4164;49.844;8.830;2024-03-17T11:23:41;14.80;99.90
8248;DHT22;4164;49.844;8.830;2024-03-17T11:26:08;14.80;99.90
8248;DHT22;4164;49.844;8.830;2024-03-17T11:31:44;15.10;99.90
8248;DHT22;4164;49.844;8.830;2024-03-17T11:34:26;14.20;99.90
8248;DHT22;4164;49.844;8.830;2024-03-17T11:36:54;14.60;99.90
8248;DHT22;4164;49.844;8.830;2024-03-17T11:39:20;14.60;99.90
8248;DHT22;4164;49.844;8.830;2024-03-17T11:41:51;15.00;99.90
8248;DHT22;4164;49.844;8.830;2024-03-17T11:49:41;18.00;99.90
8248;DHT22;4164;49.844;8.830;2024-03-17T11:52:13;20.60;99.90
8248;DHT22;4164;49.844;8.830;2024-03-17T11:54:41;22.90;99.90
8248;DHT22;4164;49.844;8.830;2024-03-17T11:57:12;21.90;99.90
8248;DHT22;4164;49.844;8.830;2024-03-17T11:59:38;18.10;99.90
8248;DHT22;4164;49.844;8.830;2024-03-17T12:02:26;17.30;99.90
8248;DHT22;4164;49.844;8.830;2024-03-17T12:04:58;17.90;99.90
8248;DHT22;4164;49.844;8.830;2024-03-17T12:07:23;17.90;99.90
8248;DHT22;4164;49.844;8.830;2024-03-17T12:09:51;17.30;99.90
8248;DHT22;4164;49.844;8.830;2024-03-17T12:14:45;18.20;99.90
8248;DHT22;4164;49.844;8.830;2024-03-17T12:17:12;19.10;99.90
8248;DHT22;4164;49.844;8.830;2024-03-17T12:19:39;18.50;99.90
8248;DHT22;4164;49.844;8.830;2024-03-17T12:22:06;17.10;99.90
8248;DHT22;4164;49.844;8.830;2024-03-17T12:24:36;17.70;99.90
8248;DHT22;4164;49.844;8.830;2024-03-17T12:27:06;18.80;99.90
8248;DHT22;4164;49.844;8.830;2024-03-17T12:29:33;18.40;99.90
8248;DHT22;4164;49.844;8.830;2024-03-17T12:32:07;17.50;99.90
8248;DHT22;4164;49.844;8.830;2024-03-17T12:34:43;16.00;97.50
8248;DHT22;4164;49.844;8.830;2024-03-17T12:37:17;14.80;95.10
8248;DHT22;4164;49.844;8.830;2024-03-17T12:39:43;16.10;99.90
8248;DHT22;4164;49.844;8.830;2024-03-17T12:42:25;16.70;99.90
8248;DHT22;4164;49.844;8.830;2024-03-17T12:45:01;16.40;99.90
8248;DHT22;4164;49.844;8.830;2024-03-17T12:47:28;16.10;99.90
8248;DHT22;4164;49.844;8.830;2024-03-17T12:49:55;16.10;99.90
8248;DHT22;4164;49.844;8.830;2024-03-17T12:52:22;15.50;98.10
8248;DHT22;4164;49.844;8.830;2024-03-17T12:55:03;15.70;99.50
8248;DHT22;4164;49.844;8.830;2024-03-17T12:57:50;15.20;97.20
8248;DHT22;4164;49.844;8.830;2024-03-17T13:00:34;15.70;99.90
8248;DHT22;4164;49.844;8.830;2024-03-17T13:03:01;16.10;99.90
8248;DHT22;4164;49.844;8.830;2024-03-17T13:05:27;16.30;99.90
8248;DHT22;4164;49.844;8.830;2024-03-17T13:07:53;15.60;99.90
8248;DHT22;4164;49.844;8.830;2024-03-17T13:10:22;15.60;99.50
8248;DHT22;4164;49.844;8.830;2024-03-17T13:13:08;15.70;99.90
8248;DHT22;4164;49.844;8.830;2024-03-17T13:15:34;14.80;97.10
8248;DHT22;4164;49.844;8.830;2024-03-17T13:18:01;15.20;99.10
8248;DHT22;4164;49.844;8.830;2024-03-17T13:20:27;15.30;99.90
8248;DHT22;4164;49.844;8.830;2024-03-17T13:22:53;14.60;98.40
8248;DHT22;4164;49.844;8.830;2024-03-17T13:25:20;14.40;98.10
8248;DHT22;4164;49.844;8.830;2024-03-17T13:27:48;14.80;99.90
8248;DHT22;4164;49.844;8.830;2024-03-17T13:30:15;15.40;99.90
8248;DHT22;4164;49.844;8.830;2024-03-17T13:32:41;15.80;99.90
8248;DHT22;4164;49.844;8.830;2024-03-17T13:35:17;15.70;99.90
8248;DHT22;4164;49.844;8.830;2024-03-17T13:37:48;15.10;99.90
8248;DHT22;4164;49.844;8.830;2024-03-17T13:40:16;15.00;99.90
8248;DHT22;4164;49.844;8.830;2024-03-17T13:42:44;14.60;99.90
8248;DHT22;4164;49.844;8.830;2024-03-17T13:45:11;14.60;99.90
8248;DHT22;4164;49.844;8.830;2024-03-17T13:47:37;14.80;99.90
8248;DHT22;4164;49.844;8.830;2024-03-17T13:50:03;15.50;99.90
8248;DHT22;4164;49.844;8.830;2024-03-17T13:52:32;16.10;99.90
8248;DHT22;4164;49.844;8.830;2024-03-17T13:54:58;16.40;99.90
8248;DHT22;4164;49.844;8.830;2024-03-17T13:57:25;16.30;99.90
8248;DHT22;4164;49.844;8.830;2024-03-17T13:59:50;17.00;99.90
8248;DHT22;4164;49.844;8.830;2024-03-17T14:02:17;16.40;99.90
8248;DHT22;4164;49.844;8.830;2024-03-17T14:04:44;16.40;99.90
8248;DHT22;4164;49.844;8.830;2024-03-17T14:07:09;15.90;99.90
8248;DHT22;4164;49.844;8.830;2024-03-17T14:09:35;16.00;99.90
8248;DHT22;4164;49.844;8.830;2024-03-17T14:12:00;16.00;99.90
8248;DHT22;4164;49.844;8.830;2024-03-17T14:14:26;16.50;99.90
8248;DHT22;4164;49.844;8.830;2024-03-17T14:16:51;17.00;99.90
8248;DHT22;4164;49.844;8.830;2024-03-17T14:19:21;17.40;99.90
8248;DHT22;4164;49.844;8.830;2024-03-17T14:21:47;17.30;99.90
8248;DHT22;4164;49.844;8.830;2024-03-17T14:24:12;17.30;99.90
8248;DHT22;4164;49.844;8.830;2024-03-17T14:26:38;17.20;99.90
8248;DHT22;4164;49.844;8.830;2024-03-17T14:29:03;17.00;99.90
8248;DHT22;4164;49.844;8.830;2024-03-17T14:31:35;16.60;99.90
8248;DHT22;4164;49.844;8.830;2024-03-17T14:34:05;16.80;99.90
8248;DHT22;4164;49.844;8.830;2024-03-17T14:36:31;16.60;99.90
8248;DHT22;4164;49.844;8.830;2024-03-17T14:38:59;16.50;99.90
8248;DHT22;4164;49.844;8.830;2024-03-17T14:41:26;16.50;99.90
8248;DHT22;4164;49.844;8.830;2024-03-17T14:43:52;16.20;99.90
8248;DHT22;4164;49.844;8.830;2024-03-17T14:46:21;16.20;99.90
8248;DHT22;4164;49.844;8.830;2024-03-17T14:48:47;15.60;99.90
8248;DHT22;4164;49.844;8.830;2024-03-17T14:51:13;15.30;99.90
8248;DHT22;4164;49.844;8.830;2024-03-17T14:53:38;15.40;99.90
8248;DHT22;4164;49.844;8.830;2024-03-17T14:56:14;15.40;99.90
8248;DHT22;4164;49.844;8.830;2024-03-17T14:58:39;15.30;99.90
8248;DHT22;4164;49.844;8.830;2024-03-17T15:01:05;15.50;99.90
8248;DHT22;4164;49.844;8.830;2024-03-17T15:03:30;15.40;99.90
8248;DHT22;4164;49.844;8.830;2024-03-17T15:05:56;15.40;99.90
8248;DHT22;4164;49.844;8.830;2024-03-17T15:08:21;15.30;99.90
8248;DHT22;4164;49.844;8.830;2024-03-17T15:10:47;15.00;99.90
8248;DHT22;4164;49.844;8.830;2024-03-17T15:13:12;14.70;99.90
8248;DHT22;4164;49.844;8.830;2024-03-17T15:15:40;14.70;99.90
8248;DHT22;4164;49.844;8.830;2024-03-17T15:18:06;14.80;99.90
8248;DHT22;4164;49.844;8.830;2024-03-17T15:20:31;14.70;99.90
8248;DHT22;4164;49.844;8.830;2024-03-17T15:22:57;14.70;99.90
8248;DHT22;4164;49.844;8.830;2024-03-17T15:25:23;14.80;99.90
8248;DHT22;4164;49.844;8.830;2024-03-17T15:27:50;14.80;99.90
8248;DHT22;4164;49.844;8.830;2024-03-17T15:30:17;14.90;99.90
8248;DHT22;4164;49.844;8.830;2024-03-17T15:32:48;14.80;99.90
8248;DHT22;4164;49.844;8.830;2024-03-17T15:35:17;14.70;99.90
8248;DHT22;4164;49.844;8.830;2024-03-17T15:37:44;14.60;99.90
8248;DHT22;4164;49.844;8.830;2024-03-17T15:40:10;14.60;99.90
8248;DHT22;4164;49.844;8.830;2024-03-17T15:42:45;14.50;99.90
8248;DHT22;4164;49.844;8.830;2024-03-17T15:45:16;14.60;99.90
8248;DHT22;4164;49.844;8.830;2024-03-17T15:47:43;14.60;99.90
8248;DHT22;4164;49.844;8.830;2024-03-17T15:50:10;14.50;99.90
8248;DHT22;4164;49.844;8.830;2024-03-17T15:52:36;14.60;99.90
8248;DHT22;4164;49.844;8.830;2024-03-17T15:55:02;14.80;99.90
8248;DHT22;4164;49.844;8.830;2024-03-17T15:57:29;14.60;99.90
8248;DHT22;4164;49.844;8.830;2024-03-17T15:59:55;14.50;99.90
8248;DHT22;4164;49.844;8.830;2024-03-17T16:02:20;14.60;99.90
8248;DHT22;4164;49.844;8.830;2024-03-17T16:04:49;14.60;99.90
8248;DHT22;4164;49.844;8.830;2024-03-17T16:07:18;14.60;99.90
8248;DHT22;4164;49.844;8.830;2024-03-17T16:09:48;14.50;99.90
8248;DHT22;4164;49.844;8.830;2024-03-17T16:12:13;14.50;99.90
8248;DHT22;4164;49.844;8.830;2024-03-17T16:14:41;14.50;99.90
8248;DHT22;4164;49.844;8.830;2024-03-17T16:17:07;14.40;99.90
8248;DHT22;4164;49.844;8.830;2024-03-17T16:19:34;14.50;99.90
8248;DHT22;4164;49.844;8.830;2024-03-17T16:22:02;14.20;99.90
8248;DHT22;4164;49.844;8.830;2024-03-17T16:24:31;14.20;99.90
8248;DHT22;4164;49.844;8.830;2024-03-17T16:26:56;14.30;99.90
8248;DHT22;4164;49.844;8.830;2024-03-17T16:29:22;14.30;99.90
8248;DHT22;4164;49.844;8.830;2024-03-17T16:31:49;14.30;99.90